sensor_id;sensor_type;location;lat;lon;timestamp;temperature;humidity
75262;DHT22;63859;51.064;4.580;2022-12-18T00:01:51;-3.90;99.90
75262;DHT22;63859;51.064;4.580;2022-12-18T00:04:23;-3.90;99.90
75262;DHT22;63859;51.064;4.580;2022-12-18T00:06:49;-4.00;99.90
75262;DHT22;63859;51.064;4.580;2022-12-18T00:09:15;-4.00;99.90
75262;DHT22;63859;51.064;4.580;2022-12-18T00:11:41;-4.00;99.90
75262;DHT22;63859;51.064;4.580;2022-12-18T00:14:06;-4.00;99.90
75262;DHT22;63859;51.064;4.580;2022-12-18T00:16:32;-4.00;99.90
75262;DHT22;63859;51.064;4.580;2022-12-18T00:19:00;-4.00;99.90
75262;DHT22;63859;51.064;4.580;2022-12-18T00:21:27;-4.10;99.90
75262;DHT22;63859;51.064;4.580;2022-12-18T00:23:53;-4.10;99.90
75262;DHT22;63859;51.064;4.580;2022-12-18T00:26:21;-4.20;99.90
75262;DHT22;63859;51.064;4.580;2022-12-18T00:28:48;-4.20;99.90
75262;DHT22;63859;51.064;4.580;2022-12-18T00:31:16;-4.20;99.90
75262;DHT22;63859;51.064;4.580;2022-12-18T00:33:42;-4.20;99.90
75262;DHT22;63859;51.064;4.580;2022-12-18T00:38:39;-4.40;99.90
75262;DHT22;63859;51.064;4.580;2022-12-18T00:41:06;-4.40;99.90
75262;DHT22;63859;51.064;4.580;2022-12-18T00:43:32;-4.40;99.90
75262;DHT22;63859;51.064;4.580;2022-12-18T00:45:57;-4.40;99.90
75262;DHT22;63859;51.064;4.580;2022-12-18T00:48:23;-4.50;99.90
75262;DHT22;63859;51.064;4.580;2022-12-18T00:50:49;-4.50;99.90
75262;DHT22;63859;51.064;4.580;2022-12-18T00:53:15;-4.40;99.90
75262;DHT22;63859;51.064;4.580;2022-12-18T00:55:41;-4.50;99.90
75262;DHT22;63859;51.064;4.580;2022-12-18T00:58:07;-4.50;99.90
75262;DHT22;63859;51.064;4.580;2022-12-18T01:00:33;-4.40;99.90
75262;DHT22;63859;51.064;4.580;2022-12-18T01:02:59;-4.40;99.90
75262;DHT22;63859;51.064;4.580;2022-12-18T01:05:25;-4.40;99.90
75262;DHT22;63859;51.064;4.580;2022-12-18T01:07:51;-4.40;99.90
75262;DHT22;63859;51.064;4.580;2022-12-18T01:10:16;-4.40;99.90
75262;DHT22;63859;51.064;4.580;2022-12-18T01:12:42;-4.50;99.90
75262;DHT22;63859;51.064;4.580;2022-12-18T01:15:09;-4.50;99.90
75262;DHT22;63859;51.064;4.580;2022-12-18T01:17:34;-4.50;99.90
75262;DHT22;63859;51.064;4.580;2022-12-18T01:20:00;-4.50;99.90
75262;DHT22;63859;51.064;4.580;2022-12-18T01:22:26;-4.60;99.90
75262;DHT22;63859;51.064;4.580;2022-12-18T01:24:51;-4.60;99.90
75262;DHT22;63859;51.064;4.580;2022-12-18T01:27:17;-4.60;99.90
75262;DHT22;63859;51.064;4.580;2022-12-18T01:29:42;-4.60;99.90
75262;DHT22;63859;51.064;4.580;2022-12-18T01:32:08;-4.60;99.90
75262;DHT22;63859;51.064;4.580;2022-12-18T01:34:36;-4.70;99.90
75262;DHT22;63859;51.064;4.580;2022-12-18T01:37:03;-4.70;99.90
75262;DHT22;63859;51.064;4.580;2022-12-18T01:39:28;-4.70;99.90
75262;DHT22;63859;51.064;4.580;2022-12-18T01:41:54;-4.60;99.90
75262;DHT22;63859;51.064;4.580;2022-12-18T01:47:43;-4.60;99.90
75262;DHT22;63859;51.064;4.580;2022-12-18T01:50:16;-4.60;99.90
75262;DHT22;63859;51.064;4.580;2022-12-18T01:52:45;-4.70;99.90
75262;DHT22;63859;51.064;4.580;2022-12-18T01:55:12;-4.60;99.90
75262;DHT22;63859;51.064;4.580;2022-12-18T01:57:40;-4.70;99.90
75262;DHT22;63859;51.064;4.580;2022-12-18T02:00:12;-4.70;99.90
75262;DHT22;63859;51.064;4.580;2022-12-18T02:02:40;-4.80;99.90
75262;DHT22;63859;51.064;4.580;2022-12-18T02:05:06;-4.80;99.90
75262;DHT22;63859;51.064;4.580;2022-12-18T02:07:42;-4.80;99.90
75262;DHT22;63859;51.064;4.580;2022-12-18T02:10:27;-4.80;99.90
75262;DHT22;63859;51.064;4.580;2022-12-18T02:13:19;-4.70;99.90
75262;DHT22;63859;51.064;4.580;2022-12-18T02:16:15;-4.70;99.90
75262;DHT22;63859;51.064;4.580;2022-12-18T02:18:47;-4.70;99.90
75262;DHT22;63859;51.064;4.580;2022-12-18T02:24:45;-4.80;99.90
75262;DHT22;63859;51.064;4.580;2022-12-18T02:27:18;-4.80;99.90
75262;DHT22;63859;51.064;4.580;2022-12-18T02:29:51;-4.90;99.90
75262;DHT22;63859;51.064;4.580;2022-12-18T02:32:24;-4.80;99.90
75262;DHT22;63859;51.064;4.580;2022-12-18T02:34:51;-4.80;99.90
75262;DHT22;63859;51.064;4.580;2022-12-18T02:37:18;-4.80;99.90
75262;DHT22;63859;51.064;4.580;2022-12-18T02:39:47;-4.80;99.90
75262;DHT22;63859;51.064;4.580;2022-12-18T02:42:14;-4.80;99.90
75262;DHT22;63859;51.064;4.580;2022-12-18T02:44:46;-4.80;99.90
75262;DHT22;63859;51.064;4.580;2022-12-18T02:47:15;-4.80;99.90
75262;DHT22;63859;51.064;4.580;2022-12-18T02:52:17;-4.80;99.90
75262;DHT22;63859;51.064;4.580;2022-12-18T02:55:13;-4.80;99.90
75262;DHT22;63859;51.064;4.580;2022-12-18T02:57:46;-4.70;99.90
75262;DHT22;63859;51.064;4.580;2022-12-18T03:00:18;-4.70;99.90
75262;DHT22;63859;51.064;4.580;2022-12-18T03:03:02;-4.70;99.90
75262;DHT22;63859;51.064;4.580;2022-12-18T03:05:56;-4.70;99.90
75262;DHT22;63859;51.064;4.580;2022-12-18T03:08:27;-4.70;99.90
75262;DHT22;63859;51.064;4.580;2022-12-18T03:11:10;-4.80;99.90
75262;DHT22;63859;51.064;4.580;2022-12-18T03:13:43;-4.80;99.90
75262;DHT22;63859;51.064;4.580;2022-12-18T03:16:13;-4.80;99.90
75262;DHT22;63859;51.064;4.580;2022-12-18T03:21:09;-4.80;99.90
75262;DHT22;63859;51.064;4.580;2022-12-18T03:23:42;-4.80;99.90
75262;DHT22;63859;51.064;4.580;2022-12-18T03:26:11;-4.80;99.90
75262;DHT22;63859;51.064;4.580;2022-12-18T03:28:44;-4.70;99.90
75262;DHT22;63859;51.064;4.580;2022-12-18T03:31:12;-4.80;99.90
75262;DHT22;63859;51.064;4.580;2022-12-18T03:33:56;-4.80;99.90
75262;DHT22;63859;51.064;4.580;2022-12-18T03:36:23;-4.80;99.90
75262;DHT22;63859;51.064;4.580;2022-12-18T03:38:49;-4.80;99.90
75262;DHT22;63859;51.064;4.580;2022-12-18T03:41:44;-4.80;99.90
75262;DHT22;63859;51.064;4.580;2022-12-18T03:46:58;-4.80;99.90
75262;DHT22;63859;51.064;4.580;2022-12-18T03:49:34;-4.80;99.90
75262;DHT22;63859;51.064;4.580;2022-12-18T03:52:08;-4.80;99.90
75262;DHT22;63859;51.064;4.580;2022-12-18T03:54:35;-4.70;99.90
75262;DHT22;63859;51.064;4.580;2022-12-18T03:57:06;-4.80;99.90
75262;DHT22;63859;51.064;4.580;2022-12-18T03:59:36;-4.80;99.90
75262;DHT22;63859;51.064;4.580;2022-12-18T04:02:04;-4.80;99.90
75262;DHT22;63859;51.064;4.580;2022-12-18T04:04:31;-4.90;99.90
75262;DHT22;63859;51.064;4.580;2022-12-18T04:06:58;-4.80;99.90
75262;DHT22;63859;51.064;4.580;2022-12-18T04:09:24;-4.90;99.90
75262;DHT22;63859;51.064;4.580;2022-12-18T04:11:51;-4.80;99.90
75262;DHT22;63859;51.064;4.580;2022-12-18T04:14:17;-4.80;99.90
75262;DHT22;63859;51.064;4.580;2022-12-18T04:16:43;-4.80;99.90
75262;DHT22;63859;51.064;4.580;2022-12-18T04:19:08;-4.90;99.90
75262;DHT22;63859;51.064;4.580;2022-12-18T04:21:34;-4.90;99.90
75262;DHT22;63859;51.064;4.580;2022-12-18T04:23:59;-5.00;99.90
75262;DHT22;63859;51.064;4.580;2022-12-18T04:26:25;-5.00;99.90
75262;DHT22;63859;51.064;4.580;2022-12-18T04:28:50;-4.90;99.90
75262;DHT22;63859;51.064;4.580;2022-12-18T04:31:16;-4.90;99.90
75262;DHT22;63859;51.064;4.580;2022-12-18T04:33:42;-4.90;99.90
75262;DHT22;63859;51.064;4.580;2022-12-18T04:36:07;-4.90;99.90
75262;DHT22;63859;51.064;4.580;2022-12-18T04:38:33;-5.00;99.90
75262;DHT22;63859;51.064;4.580;2022-12-18T04:40:58;-5.00;99.90
75262;DHT22;63859;51.064;4.580;2022-12-18T04:43:24;-4.90;99.90
75262;DHT22;63859;51.064;4.580;2022-12-18T04:45:50;-4.90;99.90
75262;DHT22;63859;51.064;4.580;2022-12-18T04:48:15;-4.90;99.90
75262;DHT22;63859;51.064;4.580;2022-12-18T04:50:41;-4.80;99.90
75262;DHT22;63859;51.064;4.580;2022-12-18T04:53:07;-4.80;99.90
75262;DHT22;63859;51.064;4.580;2022-12-18T04:55:32;-4.80;99.90
75262;DHT22;63859;51.064;4.580;2022-12-18T04:57:58;-4.80;99.90
75262;DHT22;63859;51.064;4.580;2022-12-18T05:00:23;-4.80;99.90
75262;DHT22;63859;51.064;4.580;2022-12-18T05:02:49;-4.80;99.90
75262;DHT22;63859;51.064;4.580;2022-12-18T05:05:15;-4.80;99.90
75262;DHT22;63859;51.064;4.580;2022-12-18T05:07:40;-4.80;99.90
75262;DHT22;63859;51.064;4.580;2022-12-18T05:10:06;-4.80;99.90
75262;DHT22;63859;51.064;4.580;2022-12-18T05:12:32;-4.80;99.90
75262;DHT22;63859;51.064;4.580;2022-12-18T05:14:58;-4.70;99.90
75262;DHT22;63859;51.064;4.580;2022-12-18T05:17:23;-4.80;99.90
75262;DHT22;63859;51.064;4.580;2022-12-18T05:19:49;-4.80;99.90
75262;DHT22;63859;51.064;4.580;2022-12-18T05:22:14;-4.90;99.90
75262;DHT22;63859;51.064;4.580;2022-12-18T05:24:40;-4.90;99.90
75262;DHT22;63859;51.064;4.580;2022-12-18T05:27:06;-4.90;99.90
75262;DHT22;63859;51.064;4.580;2022-12-18T05:29:31;-4.90;99.90
75262;DHT22;63859;51.064;4.580;2022-12-18T05:31:57;-5.00;99.90
75262;DHT22;63859;51.064;4.580;2022-12-18T05:34:22;-5.00;99.90
75262;DHT22;63859;51.064;4.580;2022-12-18T05:36:48;-4.90;99.90
75262;DHT22;63859;51.064;4.580;2022-12-18T05:39:14;-4.90;99.90
75262;DHT22;63859;51.064;4.580;2022-12-18T05:41:39;-4.90;99.90
75262;DHT22;63859;51.064;4.580;2022-12-18T05:44:05;-5.00;99.90
75262;DHT22;63859;51.064;4.580;2022-12-18T05:46:30;-5.00;99.90
75262;DHT22;63859;51.064;4.580;2022-12-18T05:48:59;-4.90;99.90
75262;DHT22;63859;51.064;4.580;2022-12-18T05:51:25;-4.90;99.90
75262;DHT22;63859;51.064;4.580;2022-12-18T05:53:51;-4.90;99.90
75262;DHT22;63859;51.064;4.580;2022-12-18T05:56:20;-4.90;99.90
75262;DHT22;63859;51.064;4.580;2022-12-18T05:58:46;-4.90;99.90
75262;DHT22;63859;51.064;4.580;2022-12-18T06:01:16;-4.90;99.90
75262;DHT22;63859;51.064;4.580;2022-12-18T06:03:42;-5.00;99.90
75262;DHT22;63859;51.064;4.580;2022-12-18T06:06:19;-5.00;99.90
75262;DHT22;63859;51.064;4.580;2022-12-18T06:08:45;-5.00;99.90
75262;DHT22;63859;51.064;4.580;2022-12-18T06:11:11;-5.00;99.90
75262;DHT22;63859;51.064;4.580;2022-12-18T06:13:38;-5.10;99.90
75262;DHT22;63859;51.064;4.580;2022-12-18T06:16:06;-5.10;99.90
75262;DHT22;63859;51.064;4.580;2022-12-18T06:18:33;-5.10;99.90
75262;DHT22;63859;51.064;4.580;2022-12-18T06:20:59;-5.10;99.90
75262;DHT22;63859;51.064;4.580;2022-12-18T06:23:25;-5.10;99.90
75262;DHT22;63859;51.064;4.580;2022-12-18T06:25:51;-5.10;99.90
75262;DHT22;63859;51.064;4.580;2022-12-18T06:28:16;-5.10;99.90
75262;DHT22;63859;51.064;4.580;2022-12-18T06:30:46;-5.10;99.90
75262;DHT22;63859;51.064;4.580;2022-12-18T06:33:12;-5.10;99.90
75262;DHT22;63859;51.064;4.580;2022-12-18T06:35:38;-5.20;99.90
75262;DHT22;63859;51.064;4.580;2022-12-18T06:38:03;-5.20;99.90
75262;DHT22;63859;51.064;4.580;2022-12-18T06:40:29;-5.20;99.90
75262;DHT22;63859;51.064;4.580;2022-12-18T06:42:54;-5.20;99.90
75262;DHT22;63859;51.064;4.580;2022-12-18T06:45:20;-5.20;99.90
75262;DHT22;63859;51.064;4.580;2022-12-18T06:47:46;-5.20;99.90
75262;DHT22;63859;51.064;4.580;2022-12-18T06:50:12;-5.20;99.90
75262;DHT22;63859;51.064;4.580;2022-12-18T06:52:38;-5.20;99.90
75262;DHT22;63859;51.064;4.580;2022-12-18T06:55:06;-5.20;99.90
75262;DHT22;63859;51.064;4.580;2022-12-18T06:57:32;-5.20;99.90
75262;DHT22;63859;51.064;4.580;2022-12-18T06:59:57;-5.20;99.90
75262;DHT22;63859;51.064;4.580;2022-12-18T07:02:23;-5.20;99.90
75262;DHT22;63859;51.064;4.580;2022-12-18T07:04:49;-5.20;99.90
75262;DHT22;63859;51.064;4.580;2022-12-18T07:07:14;-5.20;99.90
75262;DHT22;63859;51.064;4.580;2022-12-18T07:09:40;-5.10;99.90
75262;DHT22;63859;51.064;4.580;2022-12-18T07:12:05;-5.10;99.90
75262;DHT22;63859;51.064;4.580;2022-12-18T07:14:32;-5.20;99.90
75262;DHT22;63859;51.064;4.580;2022-12-18T07:16:57;-5.20;99.90
75262;DHT22;63859;51.064;4.580;2022-12-18T07:19:23;-5.00;99.90
75262;DHT22;63859;51.064;4.580;2022-12-18T07:21:50;-5.20;99.90
75262;DHT22;63859;51.064;4.580;2022-12-18T07:24:15;-5.10;99.90
75262;DHT22;63859;51.064;4.580;2022-12-18T07:26:41;-5.10;99.90
75262;DHT22;63859;51.064;4.580;2022-12-18T07:29:07;-5.10;99.90
75262;DHT22;63859;51.064;4.580;2022-12-18T07:31:33;-5.20;99.90
75262;DHT22;63859;51.064;4.580;2022-12-18T07:33:58;-5.20;99.90
75262;DHT22;63859;51.064;4.580;2022-12-18T07:36:24;-5.20;99.90
75262;DHT22;63859;51.064;4.580;2022-12-18T07:38:50;-5.30;99.90
75262;DHT22;63859;51.064;4.580;2022-12-18T07:41:18;-5.30;99.90
75262;DHT22;63859;51.064;4.580;2022-12-18T07:43:44;-5.30;99.90
75262;DHT22;63859;51.064;4.580;2022-12-18T07:46:11;-5.30;99.90
75262;DHT22;63859;51.064;4.580;2022-12-18T07:48:39;-5.30;99.90
75262;DHT22;63859;51.064;4.580;2022-12-18T07:51:05;-5.30;99.90
75262;DHT22;63859;51.064;4.580;2022-12-18T07:53:33;-5.30;99.90
75262;DHT22;63859;51.064;4.580;2022-12-18T07:56:05;-5.30;99.90
75262;DHT22;63859;51.064;4.580;2022-12-18T07:58:31;-5.30;99.90
75262;DHT22;63859;51.064;4.580;2022-12-18T08:01:11;-5.30;99.90
75262;DHT22;63859;51.064;4.580;2022-12-18T08:03:39;-5.40;99.90
75262;DHT22;63859;51.064;4.580;2022-12-18T08:06:07;-5.40;99.90
75262;DHT22;63859;51.064;4.580;2022-12-18T08:08:34;-5.40;99.90
75262;DHT22;63859;51.064;4.580;2022-12-18T08:11:00;-5.40;99.90
75262;DHT22;63859;51.064;4.580;2022-12-18T08:13:26;-5.40;99.90
75262;DHT22;63859;51.064;4.580;2022-12-18T08:16:01;-5.30;99.90
75262;DHT22;63859;51.064;4.580;2022-12-18T08:18:27;-5.30;99.90
75262;DHT22;63859;51.064;4.580;2022-12-18T08:20:52;-5.30;99.90
75262;DHT22;63859;51.064;4.580;2022-12-18T08:23:18;-5.20;99.90
75262;DHT22;63859;51.064;4.580;2022-12-18T08:25:44;-5.20;99.90
75262;DHT22;63859;51.064;4.580;2022-12-18T08:28:10;-5.20;99.90
75262;DHT22;63859;51.064;4.580;2022-12-18T08:30:35;-5.10;99.90
75262;DHT22;63859;51.064;4.580;2022-12-18T08:33:02;-5.10;99.90
75262;DHT22;63859;51.064;4.580;2022-12-18T08:35:28;-5.10;99.90
75262;DHT22;63859;51.064;4.580;2022-12-18T08:37:54;-5.10;99.90
75262;DHT22;63859;51.064;4.580;2022-12-18T08:40:19;-5.00;99.90
75262;DHT22;63859;51.064;4.580;2022-12-18T08:42:45;-5.00;99.90
75262;DHT22;63859;51.064;4.580;2022-12-18T08:45:29;-4.90;99.90
75262;DHT22;63859;51.064;4.580;2022-12-18T08:47:55;-4.80;99.90
75262;DHT22;63859;51.064;4.580;2022-12-18T08:50:21;-4.80;99.90
75262;DHT22;63859;51.064;4.580;2022-12-18T08:52:46;-4.70;99.90
75262;DHT22;63859;51.064;4.580;2022-12-18T08:55:12;-4.60;99.90
75262;DHT22;63859;51.064;4.580;2022-12-18T08:57:37;-4.60;99.90
75262;DHT22;63859;51.064;4.580;2022-12-18T09:00:04;-4.60;99.90
75262;DHT22;63859;51.064;4.580;2022-12-18T09:02:30;-4.50;99.90
75262;DHT22;63859;51.064;4.580;2022-12-18T09:04:55;-4.50;99.90
75262;DHT22;63859;51.064;4.580;2022-12-18T09:07:21;-4.50;99.90
75262;DHT22;63859;51.064;4.580;2022-12-18T09:09:46;-4.40;99.90
75262;DHT22;63859;51.064;4.580;2022-12-18T09:12:12;-4.40;99.90
75262;DHT22;63859;51.064;4.580;2022-12-18T09:14:37;-4.30;99.90
75262;DHT22;63859;51.064;4.580;2022-12-18T09:17:03;-4.30;99.90
75262;DHT22;63859;51.064;4.580;2022-12-18T09:19:29;-4.30;99.90
75262;DHT22;63859;51.064;4.580;2022-12-18T09:21:54;-4.30;99.90
75262;DHT22;63859;51.064;4.580;2022-12-18T09:24:20;-4.00;99.90
75262;DHT22;63859;51.064;4.580;2022-12-18T09:26:46;-4.10;99.90
75262;DHT22;63859;51.064;4.580;2022-12-18T09:29:11;-4.10;99.90
75262;DHT22;63859;51.064;4.580;2022-12-18T09:31:38;-4.00;99.90
75262;DHT22;63859;51.064;4.580;2022-12-18T09:34:04;-4.00;99.90
75262;DHT22;63859;51.064;4.580;2022-12-18T09:36:31;-3.90;99.90
75262;DHT22;63859;51.064;4.580;2022-12-18T09:38:56;-3.90;99.90
75262;DHT22;63859;51.064;4.580;2022-12-18T09:44:35;-3.80;99.90
75262;DHT22;63859;51.064;4.580;2022-12-18T09:47:15;-3.70;99.90
75262;DHT22;63859;51.064;4.580;2022-12-18T09:49:49;-3.70;99.90
75262;DHT22;63859;51.064;4.580;2022-12-18T09:55:03;-3.60;99.90
75262;DHT22;63859;51.064;4.580;2022-12-18T09:57:33;-3.60;99.90
75262;DHT22;63859;51.064;4.580;2022-12-18T10:00:19;-3.50;99.90
75262;DHT22;63859;51.064;4.580;2022-12-18T10:02:46;-3.50;99.90
75262;DHT22;63859;51.064;4.580;2022-12-18T10:05:17;-3.50;99.90
75262;DHT22;63859;51.064;4.580;2022-12-18T10:07:57;-3.50;99.90
75262;DHT22;63859;51.064;4.580;2022-12-18T10:10:45;-3.40;99.90
75262;DHT22;63859;51.064;4.580;2022-12-18T10:13:36;-3.30;99.90
75262;DHT22;63859;51.064;4.580;2022-12-18T10:16:17;-3.30;99.90
75262;DHT22;63859;51.064;4.580;2022-12-18T10:21:59;-3.20;99.90
75262;DHT22;63859;51.064;4.580;2022-12-18T10:24:29;-3.20;99.90
75262;DHT22;63859;51.064;4.580;2022-12-18T10:27:08;-3.10;99.90
75262;DHT22;63859;51.064;4.580;2022-12-18T10:29:36;-3.10;99.90
75262;DHT22;63859;51.064;4.580;2022-12-18T10:32:02;-3.10;99.90
75262;DHT22;63859;51.064;4.580;2022-12-18T10:34:28;-3.10;99.90
75262;DHT22;63859;51.064;4.580;2022-12-18T10:36:53;-3.10;99.90
75262;DHT22;63859;51.064;4.580;2022-12-18T10:39:24;-3.00;99.90
75262;DHT22;63859;51.064;4.580;2022-12-18T10:42:10;-3.00;99.90
75262;DHT22;63859;51.064;4.580;2022-12-18T10:44:37;-2.90;99.90
75262;DHT22;63859;51.064;4.580;2022-12-18T10:47:04;-2.80;99.90
75262;DHT22;63859;51.064;4.580;2022-12-18T10:49:33;-2.80;99.90
75262;DHT22;63859;51.064;4.580;2022-12-18T10:52:20;-2.70;99.90
75262;DHT22;63859;51.064;4.580;2022-12-18T10:54:55;-2.60;99.90
75262;DHT22;63859;51.064;4.580;2022-12-18T10:59:59;-2.60;99.90
75262;DHT22;63859;51.064;4.580;2022-12-18T11:02:36;-2.50;99.90
75262;DHT22;63859;51.064;4.580;2022-12-18T11:05:26;-2.50;99.90
75262;DHT22;63859;51.064;4.580;2022-12-18T11:07:50;-2.50;99.90
75262;DHT22;63859;51.064;4.580;2022-12-18T11:10:21;-2.40;99.90
75262;DHT22;63859;51.064;4.580;2022-12-18T11:12:47;-2.40;99.90
75262;DHT22;63859;51.064;4.580;2022-12-18T11:15:28;-2.30;99.90
75262;DHT22;63859;51.064;4.580;2022-12-18T11:17:55;-2.30;99.90
75262;DHT22;63859;51.064;4.580;2022-12-18T11:20:31;-2.30;99.90
75262;DHT22;63859;51.064;4.580;2022-12-18T11:23:00;-2.20;99.90
75262;DHT22;63859;51.064;4.580;2022-12-18T11:25:26;-2.20;99.90
75262;DHT22;63859;51.064;4.580;2022-12-18T11:27:55;-2.20;99.90
75262;DHT22;63859;51.064;4.580;2022-12-18T11:30:36;-2.10;99.90
75262;DHT22;63859;51.064;4.580;2022-12-18T11:33:10;-2.10;99.90
75262;DHT22;63859;51.064;4.580;2022-12-18T11:38:38;-2.00;99.90
75262;DHT22;63859;51.064;4.580;2022-12-18T11:41:27;-2.00;99.90
75262;DHT22;63859;51.064;4.580;2022-12-18T11:44:18;-1.90;99.90
75262;DHT22;63859;51.064;4.580;2022-12-18T11:46:53;-1.90;99.90
75262;DHT22;63859;51.064;4.580;2022-12-18T11:49:34;-1.90;99.90
75262;DHT22;63859;51.064;4.580;2022-12-18T11:52:23;-1.90;99.90
75262;DHT22;63859;51.064;4.580;2022-12-18T11:54:55;-1.80;99.90
75262;DHT22;63859;51.064;4.580;2022-12-18T12:00:19;-1.80;99.90
75262;DHT22;63859;51.064;4.580;2022-12-18T12:16:58;-1.40;99.90
75262;DHT22;63859;51.064;4.580;2022-12-18T12:23:05;-1.30;99.90
75262;DHT22;63859;51.064;4.580;2022-12-18T12:27:52;-1.30;99.90
75262;DHT22;63859;51.064;4.580;2022-12-18T12:38:50;-1.10;99.90
75262;DHT22;63859;51.064;4.580;2022-12-18T12:41:26;-1.10;99.90
75262;DHT22;63859;51.064;4.580;2022-12-18T12:44:24;-1.10;99.90
75262;DHT22;63859;51.064;4.580;2022-12-18T12:46:52;-1.00;99.90
75262;DHT22;63859;51.064;4.580;2022-12-18T12:49:21;-1.00;99.90
75262;DHT22;63859;51.064;4.580;2022-12-18T12:54:25;-1.00;99.90
75262;DHT22;63859;51.064;4.580;2022-12-18T12:57:44;-0.90;99.90
75262;DHT22;63859;51.064;4.580;2022-12-18T13:00:10;-0.90;99.90
75262;DHT22;63859;51.064;4.580;2022-12-18T13:02:53;-0.90;99.90
75262;DHT22;63859;51.064;4.580;2022-12-18T13:07:56;-0.80;99.90
75262;DHT22;63859;51.064;4.580;2022-12-18T13:10:34;-0.80;99.90
75262;DHT22;63859;51.064;4.580;2022-12-18T13:16:11;-0.80;99.90
75262;DHT22;63859;51.064;4.580;2022-12-18T13:18:29;-0.80;99.90
75262;DHT22;63859;51.064;4.580;2022-12-18T13:25:52;-0.80;99.90
75262;DHT22;63859;51.064;4.580;2022-12-18T13:30:59;-0.70;99.90
75262;DHT22;63859;51.064;4.580;2022-12-18T13:36:00;-0.60;99.90
75262;DHT22;63859;51.064;4.580;2022-12-18T13:49:00;-0.60;99.90
75262;DHT22;63859;51.064;4.580;2022-12-18T13:51:27;-0.60;99.90
75262;DHT22;63859;51.064;4.580;2022-12-18T13:53:58;-0.60;99.90
75262;DHT22;63859;51.064;4.580;2022-12-18T13:56:28;-0.60;99.90
75262;DHT22;63859;51.064;4.580;2022-12-18T13:59:10;-0.50;99.90
75262;DHT22;63859;51.064;4.580;2022-12-18T14:01:36;-0.50;99.90
75262;DHT22;63859;51.064;4.580;2022-12-18T14:06:50;-0.50;99.90
75262;DHT22;63859;51.064;4.580;2022-12-18T14:09:31;-0.50;99.90
75262;DHT22;63859;51.064;4.580;2022-12-18T14:12:00;-0.50;99.90
75262;DHT22;63859;51.064;4.580;2022-12-18T14:14:49;-0.50;99.90
75262;DHT22;63859;51.064;4.580;2022-12-18T14:17:16;-0.50;99.90
75262;DHT22;63859;51.064;4.580;2022-12-18T14:19:47;-0.50;99.90
75262;DHT22;63859;51.064;4.580;2022-12-18T14:22:25;-0.50;99.90
75262;DHT22;63859;51.064;4.580;2022-12-18T14:25:28;-0.50;99.90
75262;DHT22;63859;51.064;4.580;2022-12-18T14:28:14;-0.50;99.90
75262;DHT22;63859;51.064;4.580;2022-12-18T14:30:42;-0.50;99.90
75262;DHT22;63859;51.064;4.580;2022-12-18T14:38:21;-0.40;99.90
75262;DHT22;63859;51.064;4.580;2022-12-18T14:40:48;-0.40;99.90
75262;DHT22;63859;51.064;4.580;2022-12-18T14:43:20;-0.40;99.90
75262;DHT22;63859;51.064;4.580;2022-12-18T14:45:46;-0.40;99.90
75262;DHT22;63859;51.064;4.580;2022-12-18T14:48:16;-0.40;99.90
75262;DHT22;63859;51.064;4.580;2022-12-18T14:50:43;-0.40;99.90
75262;DHT22;63859;51.064;4.580;2022-12-18T14:55:57;-0.40;99.90
75262;DHT22;63859;51.064;4.580;2022-12-18T14:58:23;-0.50;99.90
75262;DHT22;63859;51.064;4.580;2022-12-18T15:00:49;-0.50;99.90
75262;DHT22;63859;51.064;4.580;2022-12-18T15:03:20;-0.50;99.90
75262;DHT22;63859;51.064;4.580;2022-12-18T15:05:46;-0.50;99.90
75262;DHT22;63859;51.064;4.580;2022-12-18T15:08:35;-0.50;99.90
75262;DHT22;63859;51.064;4.580;2022-12-18T15:11:01;-0.40;99.90
75262;DHT22;63859;51.064;4.580;2022-12-18T15:13:27;-0.50;99.90
75262;DHT22;63859;51.064;4.580;2022-12-18T15:15:55;-0.40;99.90
75262;DHT22;63859;51.064;4.580;2022-12-18T15:18:29;-0.50;99.90
75262;DHT22;63859;51.064;4.580;2022-12-18T15:21:03;-0.50;99.90
75262;DHT22;63859;51.064;4.580;2022-12-18T15:23:46;-0.40;99.90
75262;DHT22;63859;51.064;4.580;2022-12-18T15:26:14;-0.40;99.90
75262;DHT22;63859;51.064;4.580;2022-12-18T15:28:51;-0.40;99.90
75262;DHT22;63859;51.064;4.580;2022-12-18T15:31:33;-0.40;99.90
75262;DHT22;63859;51.064;4.580;2022-12-18T15:34:05;-0.40;99.90
75262;DHT22;63859;51.064;4.580;2022-12-18T15:36:30;-0.40;99.90
75262;DHT22;63859;51.064;4.580;2022-12-18T15:38:56;-0.40;99.90
75262;DHT22;63859;51.064;4.580;2022-12-18T15:41:25;-0.40;99.90
75262;DHT22;63859;51.064;4.580;2022-12-18T15:43:52;-0.40;99.90
75262;DHT22;63859;51.064;4.580;2022-12-18T15:46:25;-0.40;99.90
75262;DHT22;63859;51.064;4.580;2022-12-18T15:48:53;-0.40;99.90
75262;DHT22;63859;51.064;4.580;2022-12-18T15:51:20;-0.40;99.90
75262;DHT22;63859;51.064;4.580;2022-12-18T15:53:48;-0.40;99.90
75262;DHT22;63859;51.064;4.580;2022-12-18T15:56:16;-0.30;99.90
75262;DHT22;63859;51.064;4.580;2022-12-18T15:59:01;-0.30;99.90
75262;DHT22;63859;51.064;4.580;2022-12-18T16:01:29;-0.30;99.90
75262;DHT22;63859;51.064;4.580;2022-12-18T16:03:55;-0.30;99.90
75262;DHT22;63859;51.064;4.580;2022-12-18T16:06:21;-0.30;99.90
75262;DHT22;63859;51.064;4.580;2022-12-18T16:08:47;-0.30;99.90
75262;DHT22;63859;51.064;4.580;2022-12-18T16:14:25;-0.30;99.90
75262;DHT22;63859;51.064;4.580;2022-12-18T16:16:51;-0.30;99.90
75262;DHT22;63859;51.064;4.580;2022-12-18T16:19:18;-0.30;99.90
75262;DHT22;63859;51.064;4.580;2022-12-18T16:21:44;-0.30;99.90
75262;DHT22;63859;51.064;4.580;2022-12-18T16:24:16;-0.30;99.90
75262;DHT22;63859;51.064;4.580;2022-12-18T16:26:42;-0.30;99.90
75262;DHT22;63859;51.064;4.580;2022-12-18T16:29:08;-0.30;99.90
75262;DHT22;63859;51.064;4.580;2022-12-18T16:31:34;-0.30;99.90
75262;DHT22;63859;51.064;4.580;2022-12-18T16:34:19;-0.30;99.90
75262;DHT22;63859;51.064;4.580;2022-12-18T16:36:48;-0.20;99.90
75262;DHT22;63859;51.064;4.580;2022-12-18T16:39:13;-0.30;99.90
75262;DHT22;63859;51.064;4.580;2022-12-18T16:41:39;-0.20;99.90
75262;DHT22;63859;51.064;4.580;2022-12-18T16:44:05;-0.30;99.90
75262;DHT22;63859;51.064;4.580;2022-12-18T16:46:30;-0.20;99.90
75262;DHT22;63859;51.064;4.580;2022-12-18T16:48:59;-0.20;99.90
75262;DHT22;63859;51.064;4.580;2022-12-18T16:51:26;-0.20;99.90
75262;DHT22;63859;51.064;4.580;2022-12-18T16:53:53;-0.20;99.90
75262;DHT22;63859;51.064;4.580;2022-12-18T16:56:20;-0.20;99.90
75262;DHT22;63859;51.064;4.580;2022-12-18T16:58:53;-0.20;99.90
75262;DHT22;63859;51.064;4.580;2022-12-18T17:01:19;-0.20;99.90
75262;DHT22;63859;51.064;4.580;2022-12-18T17:03:54;-0.20;99.90
75262;DHT22;63859;51.064;4.580;2022-12-18T17:06:23;-0.20;99.90
75262;DHT22;63859;51.064;4.580;2022-12-18T17:08:57;-0.10;99.90
75262;DHT22;63859;51.064;4.580;2022-12-18T17:11:40;-0.10;99.90
75262;DHT22;63859;51.064;4.580;2022-12-18T17:14:13;-0.10;99.90
75262;DHT22;63859;51.064;4.580;2022-12-18T17:16:39;-0.10;99.90
75262;DHT22;63859;51.064;4.580;2022-12-18T17:19:05;-0.10;99.90
75262;DHT22;63859;51.064;4.580;2022-12-18T17:21:31;-0.10;99.90
75262;DHT22;63859;51.064;4.580;2022-12-18T17:23:59;-0.10;99.90
75262;DHT22;63859;51.064;4.580;2022-12-18T17:26:25;-0.10;99.90
75262;DHT22;63859;51.064;4.580;2022-12-18T17:28:50;-0.10;99.90
75262;DHT22;63859;51.064;4.580;2022-12-18T17:31:20;-0.10;99.90